Terminal Aerodrome Forecast
Issued by NWS

Home | Current Version | Previous Version | Text Only | Print | Product List | Glossary On
Versions: 1 2 3 4 5 6 7 8 9 10 11 12 13 14 15 16 17 18 19 20 21 22
000
FTUS41 KBOX 201734
TAFFMH
TAF
KFMH 201734Z 2018/2118 23015G22KT 2SM BR OVC003
     FM210200 23012KT 1/2SM FG OVC002 WS020/26040KT
     FM211400 23012KT 2SM BR BKN005 WS020/25045KT
     FM211600 23015KT 6SM BR BKN008=

USA.gov is the U.S. government's official web portal to all federal, state and local government web resources and services.